createdAt,value
2023-03-30T00:03:42.718Z,6.63
2023-03-30T00:08:40.797Z,5.20
2023-03-30T00:13:39.472Z,7.93
2023-03-30T00:18:36.823Z,6.00
2023-03-30T00:23:33.643Z,5.03
2023-03-30T00:28:34.944Z,6.63
2023-03-30T00:33:44.875Z,8.45
2023-03-30T00:38:44.845Z,5.88
2023-03-30T00:44:00.158Z,6.35
2023-03-30T00:49:03.450Z,7.53
2023-03-30T00:54:06.738Z,5.72
2023-03-30T00:59:05.079Z,7.15
2023-03-30T01:04:06.131Z,6.75
2023-03-30T01:09:03.444Z,9.82
2023-03-30T01:14:03.660Z,6.10
2023-03-30T01:19:23.814Z,7.70
2023-03-30T01:24:48.390Z,7.25
2023-03-30T01:30:07.862Z,10.68
2023-03-30T01:35:27.764Z,8.73
2023-03-30T01:40:29.516Z,7.85
2023-03-30T01:45:36.374Z,6.82
2023-03-30T01:50:39.896Z,9.73
2023-03-30T01:55:43.067Z,7.53
2023-03-30T02:00:48.360Z,7.90
2023-03-30T02:05:49.597Z,11.32
2023-03-30T02:10:49.503Z,7.50
2023-03-30T02:15:50.287Z,8.30
2023-03-30T02:20:48.857Z,7.55
2023-03-30T02:25:46.006Z,7.70
2023-03-30T02:30:45.384Z,5.68
2023-03-30T02:35:59.077Z,7.68
2023-03-30T02:41:08.916Z,9.18
2023-03-30T02:46:38.420Z,7.80
2023-03-30T02:51:42.719Z,6.55
2023-03-30T02:56:56.801Z,6.93
2023-03-30T03:01:58.639Z,7.50
2023-03-30T03:06:56.584Z,10.90
2023-03-30T03:11:53.637Z,9.55
2023-03-30T03:16:51.504Z,9.57
2023-03-30T03:21:51.149Z,8.63
2023-03-30T03:26:48.833Z,12.65
2023-03-30T03:31:45.881Z,9.77
2023-03-30T03:36:43.325Z,11.90
2023-03-30T03:41:41.194Z,8.10
2023-03-30T03:46:38.828Z,8.98
2023-03-30T03:51:37.924Z,10.48
2023-03-30T03:56:35.592Z,10.20
2023-03-30T04:01:33.253Z,16.38
2023-03-30T04:06:30.165Z,11.93
2023-03-30T04:11:27.098Z,14.38
2023-03-30T04:16:39.032Z,22.48
2023-03-30T04:21:50.330Z,21.95
2023-03-30T04:27:09.064Z,16.20
2023-03-30T04:32:54.066Z,16.58
2023-03-30T04:38:24.734Z,23.13
2023-03-30T04:43:36.814Z,21.90
2023-03-30T04:48:37.064Z,27.58
2023-03-30T04:53:43.130Z,27.08
2023-03-30T04:59:02.461Z,12.43
2023-03-30T05:04:22.396Z,25.30
2023-03-30T05:09:38.115Z,14.45
2023-03-30T05:14:53.610Z,26.00
2023-03-30T05:20:17.643Z,16.50
2023-03-30T05:25:49.913Z,16.58
2023-03-30T05:31:11.347Z,13.43
2023-03-30T05:36:24.422Z,21.95
2023-03-30T05:41:37.055Z,11.32
2023-03-30T05:46:51.456Z,13.85
2023-03-30T05:52:10.232Z,116.75
2023-03-30T05:57:27.705Z,21.83
2023-03-30T06:02:58.647Z,9.43
2023-03-30T06:08:00.268Z,9.55
2023-03-30T06:12:57.921Z,8.02
2023-03-30T06:18:03.391Z,8.65
2023-03-30T06:23:03.835Z,6.60
2023-03-30T06:28:01.688Z,9.52
2023-03-30T06:33:04.985Z,11.75
2023-03-30T06:38:14.906Z,9.88
2023-03-30T06:43:16.115Z,10.63
2023-03-30T06:48:24.826Z,8.80
2023-03-30T06:53:45.200Z,6.70
2023-03-30T06:58:42.290Z,8.90
2023-03-30T07:03:47.462Z,7.53
2023-03-30T07:14:00.499Z,5.55
2023-03-30T07:19:00.647Z,7.65
2023-03-30T07:24:00.538Z,6.03
2023-03-30T07:29:04.817Z,7.28
2023-03-30T07:34:10.262Z,8.10
2023-03-30T07:39:12.683Z,9.60
2023-03-30T07:44:12.719Z,8.40
2023-03-30T07:49:10.396Z,9.32
2023-03-30T07:54:09.748Z,7.90
2023-03-30T07:59:31.439Z,6.28
2023-03-30T08:04:43.226Z,7.00
2023-03-30T08:09:40.944Z,6.45
2023-03-30T08:14:38.787Z,5.53
2023-03-30T08:19:35.614Z,4.40
2023-03-30T08:24:32.911Z,12.35
2023-03-30T08:29:30.946Z,5.38
2023-03-30T08:34:29.049Z,3.50
2023-03-30T08:39:26.283Z,4.35
2023-03-30T08:44:33.444Z,5.28
2023-03-30T08:49:37.124Z,4.90
2023-03-30T08:54:34.288Z,3.63
2023-03-30T08:59:44.129Z,8.25
2023-03-30T09:04:57.272Z,2.60
2023-03-30T09:14:58.067Z,3.40
2023-03-30T09:20:01.204Z,4.97
2023-03-30T09:25:02.343Z,37.92
2023-03-30T09:30:07.877Z,4.18
2023-03-30T09:35:13.838Z,2.85
2023-03-30T09:40:36.621Z,3.92
2023-03-30T09:45:34.229Z,3.08
2023-03-30T09:50:37.566Z,3.20
2023-03-30T09:55:36.586Z,3.60
2023-03-30T10:00:34.165Z,2.38
2023-03-30T10:05:33.650Z,3.13
2023-03-30T10:10:34.951Z,4.50
2023-03-30T10:15:32.485Z,3.97
2023-03-30T10:20:35.540Z,3.67
2023-03-30T10:25:33.639Z,4.23
2023-03-30T10:30:31.956Z,4.38
2023-03-30T10:35:36.441Z,4.43
2023-03-30T10:40:36.579Z,3.03
2023-03-30T10:45:40.443Z,4.68
2023-03-30T10:50:48.526Z,3.20
2023-03-30T10:55:53.006Z,7.93
2023-03-30T11:01:03.784Z,3.13
2023-03-30T11:06:09.613Z,4.85
2023-03-30T11:11:12.765Z,4.10
2023-03-30T11:16:16.140Z,4.50
2023-03-30T11:21:19.774Z,3.28
2023-03-30T11:26:20.187Z,4.85
2023-03-30T11:31:33.199Z,3.45
2023-03-30T11:36:35.666Z,5.10
2023-03-30T11:41:38.705Z,3.47
2023-03-30T11:46:42.866Z,4.22
2023-03-30T11:51:53.257Z,3.30
2023-03-30T11:56:55.889Z,4.70
2023-03-30T12:02:06.979Z,4.38
2023-03-30T12:07:11.732Z,3.60
2023-03-30T12:12:15.030Z,4.40
2023-03-30T12:17:27.373Z,6.50
2023-03-30T12:22:35.212Z,5.03
2023-03-30T12:27:36.467Z,3.60
2023-03-30T12:32:35.264Z,3.88
2023-03-30T12:37:41.127Z,5.28
2023-03-30T12:42:46.441Z,4.20
2023-03-30T12:48:01.578Z,5.35
2023-03-30T12:53:23.599Z,3.75
2023-03-30T12:58:43.562Z,4.30
2023-03-30T13:03:49.667Z,5.95
2023-03-30T13:08:47.771Z,3.80
2023-03-30T13:13:56.548Z,4.65
2023-03-30T13:18:55.406Z,5.07
2023-03-30T13:24:07.562Z,4.85
2023-03-30T13:29:08.025Z,2.67
2023-03-30T13:34:23.245Z,6.47
2023-03-30T13:39:29.026Z,4.40
2023-03-30T13:44:46.092Z,7.43
2023-03-30T13:49:58.215Z,5.72
2023-03-30T13:54:56.153Z,2.85
2023-03-30T13:59:57.931Z,5.07
2023-03-30T14:04:54.866Z,4.43
2023-03-30T14:10:08.848Z,4.63
2023-03-30T14:15:19.371Z,5.70
2023-03-30T14:20:28.335Z,11.07
2023-03-30T14:25:28.672Z,6.70
2023-03-30T14:30:28.903Z,4.90
2023-03-30T14:35:26.178Z,4.93
2023-03-30T14:40:24.613Z,3.22
2023-03-30T14:45:22.370Z,5.90
2023-03-30T14:50:19.508Z,5.20
2023-03-30T14:55:20.690Z,5.97
2023-03-30T15:00:20.408Z,7.00
2023-03-30T15:05:19.841Z,5.05
2023-03-30T15:10:25.249Z,5.93
2023-03-30T15:20:29.336Z,4.75
2023-03-30T15:25:31.587Z,4.27
2023-03-30T15:30:36.123Z,2.55
2023-03-30T15:35:39.926Z,8.37
2023-03-30T15:40:39.911Z,5.07
2023-03-30T15:45:37.007Z,3.95
2023-03-30T15:50:36.293Z,4.22
2023-03-30T15:55:33.782Z,7.03
2023-03-30T16:00:35.295Z,9.68
2023-03-30T16:05:33.672Z,5.80
2023-03-30T16:10:34.512Z,5.93
2023-03-30T16:15:33.165Z,7.75
2023-03-30T16:20:31.926Z,10.40
2023-03-30T16:30:33.525Z,14.65
2023-03-30T16:35:31.112Z,15.82
2023-03-30T16:40:32.650Z,13.10
2023-03-30T16:45:30.827Z,27.58
2023-03-30T16:50:37.335Z,13.18
2023-03-30T16:55:34.774Z,22.80
2023-03-30T17:00:36.363Z,12.50
2023-03-30T17:05:33.813Z,14.13
2023-03-30T17:10:33.869Z,12.52
2023-03-30T17:15:31.232Z,10.05
2023-03-30T17:20:35.615Z,12.77
2023-03-30T17:25:35.442Z,18.00
2023-03-30T17:30:35.194Z,19.85
2023-03-30T17:35:33.924Z,18.60
2023-03-30T17:40:32.383Z,34.88
2023-03-30T17:45:30.015Z,43.28
2023-03-30T17:50:36.063Z,45.28
2023-03-30T17:55:34.047Z,46.05
2023-03-30T18:00:32.963Z,58.95
2023-03-30T18:05:31.810Z,41.90
2023-03-30T18:10:35.420Z,39.17
2023-03-30T18:15:36.222Z,38.17
2023-03-30T18:20:35.654Z,42.72
2023-03-30T18:25:35.825Z,41.45
2023-03-30T18:30:36.290Z,37.45
2023-03-30T18:35:35.964Z,44.03
2023-03-30T18:40:36.121Z,20.58
2023-03-30T18:45:35.257Z,21.10
2023-03-30T18:50:35.231Z,10.20
2023-03-30T18:55:34.090Z,11.75
2023-03-30T19:00:34.445Z,16.80
2023-03-30T19:05:32.903Z,14.02
2023-03-30T19:10:32.658Z,8.93
2023-03-30T19:15:32.623Z,8.27
2023-03-30T19:20:31.672Z,7.00
2023-03-30T19:25:28.544Z,8.77
2023-03-30T19:30:26.397Z,6.13
2023-03-30T19:35:25.255Z,6.40
2023-03-30T19:40:22.532Z,8.73
2023-03-30T19:45:22.261Z,8.38
2023-03-30T19:50:22.518Z,5.88
2023-03-30T19:55:20.729Z,7.28
2023-03-30T20:00:19.106Z,7.78
2023-03-30T20:05:16.888Z,8.07
2023-03-30T20:10:16.348Z,5.72
2023-03-30T20:15:14.369Z,9.18
2023-03-30T20:20:13.449Z,6.47
2023-03-30T20:25:12.951Z,6.07
2023-03-30T20:30:12.041Z,8.23
2023-03-30T20:35:11.142Z,9.60
2023-03-30T20:40:09.421Z,6.68
2023-03-30T20:45:07.831Z,5.80
2023-03-30T20:50:05.880Z,7.40
2023-03-30T20:55:03.873Z,4.57
2023-03-30T21:00:01.019Z,4.85
2023-03-30T21:04:59.500Z,4.22
2023-03-30T21:09:56.252Z,5.75
2023-03-30T21:14:53.697Z,4.15
2023-03-30T21:19:50.450Z,5.28
2023-03-30T21:24:47.266Z,5.50
2023-03-30T21:29:44.027Z,4.75
2023-03-30T21:34:41.401Z,5.07
2023-03-30T21:39:38.400Z,17.25
2023-03-30T21:44:36.104Z,7.28
2023-03-30T21:49:33.250Z,11.63
2023-03-30T21:54:30.680Z,10.40
2023-03-30T21:59:27.575Z,8.80
2023-03-30T22:04:24.905Z,10.35
2023-03-30T22:09:21.753Z,12.02
2023-03-30T22:14:19.494Z,10.77
2023-03-30T22:19:17.923Z,7.57
2023-03-30T22:24:16.874Z,9.98
2023-03-30T22:29:13.781Z,10.00
2023-03-30T22:34:11.525Z,13.90
2023-03-30T22:39:08.529Z,18.67
2023-03-30T22:44:05.798Z,16.30
2023-03-30T22:49:03.104Z,18.35
2023-03-30T22:54:00.860Z,19.33
2023-03-30T22:58:59.450Z,22.55
2023-03-30T23:03:58.820Z,19.08
2023-03-30T23:08:55.798Z,20.85
2023-03-30T23:13:53.371Z,21.02
2023-03-30T23:18:50.813Z,22.30
2023-03-30T23:23:47.586Z,18.92
2023-03-30T23:28:44.675Z,19.15
2023-03-30T23:33:42.477Z,18.83
2023-03-30T23:38:39.388Z,19.52
2023-03-30T23:43:36.270Z,15.45
2023-03-30T23:48:33.411Z,19.80
2023-03-30T23:53:31.016Z,16.08
2023-03-30T23:58:27.913Z,15.38
